Time;durP1;ratioP1;P1;durP2;ratioP2;P2;SDS_P1;SDS_P2;PMS_P1;PMS_P2;Temp;Humidity;BMP_temperature;BMP_pressure;BME280_temperature;BME280_humidity;BME280_pressure;Samples;Min_cycle;Max_cycle;Signal;HPM_P1;HPM_P2
2023/01/27 00:02:44;;;;;;;52.90;30.60;;;;;;;2.69;64.44;99211.68;235554;1193;138380;-73
2023/01/27 00:07:48;;;;;;;54.80;31.20;;;;;;;2.67;64.42;99213.64;235537;1193;139650;-73
2023/01/27 00:18:15;;;;;;;46.30;28.40;;;;;;;2.64;64.43;99210.06;233120;1193;138982;-74
2023/01/27 00:28:46;;;;;;;52.70;30.20;;;;;;;2.59;64.23;99209.48;234010;1192;138646;-74
2023/01/27 00:33:53;;;;;;;48.00;28.90;;;;;;;2.64;64.23;99209.89;234250;1193;138768;-73
2023/01/27 00:38:56;;;;;;;51.60;29.10;;;;;;;2.60;64.18;99211.89;234807;1193;139164;-73
2023/01/27 00:44:00;;;;;;;51.90;29.80;;;;;;;2.57;64.65;99211.96;235595;1195;138579;-73
2023/01/27 00:49:04;;;;;;;48.60;29.40;;;;;;;2.57;64.68;99207.23;233989;1192;138620;-75
2023/01/27 00:54:07;;;;;;;46.90;30.10;;;;;;;2.58;64.42;99203.73;232274;1193;138871;-74
2023/01/27 00:59:11;;;;;;;47.80;28.70;;;;;;;2.58;64.42;99204.08;232876;1192;141407;-74
2023/01/27 01:04:17;;;;;;;42.00;25.50;;;;;;;2.56;64.29;99202.19;234734;1192;138524;-74
2023/01/27 01:09:24;;;;;;;42.40;25.80;;;;;;;2.53;63.92;99195.45;233443;1192;138461;-75
2023/01/27 01:14:27;;;;;;;40.90;24.80;;;;;;;2.54;63.98;99195.60;235585;1192;138777;-74
2023/01/27 01:19:31;;;;;;;41.90;24.80;;;;;;;2.57;64.21;99194.48;234424;1193;138592;-73
2023/01/27 01:24:41;;;;;;;39.60;24.50;;;;;;;2.55;63.81;99195.22;234918;1192;138803;-74
2023/01/27 01:29:45;;;;;;;46.20;25.70;;;;;;;2.52;63.80;99197.05;233795;1192;138331;-75
2023/01/27 01:34:49;;;;;;;43.30;25.70;;;;;;;2.53;63.95;99190.05;231289;1192;138325;-72
2023/01/27 01:39:53;;;;;;;44.20;25.80;;;;;;;2.51;63.87;99188.69;235332;1193;138558;-70
2023/01/27 01:45:26;;;;;;;37.90;24.90;;;;;;;2.50;63.83;99182.93;235524;1193;138621;-70
2023/01/27 01:50:31;;;;;;;35.40;22.80;;;;;;;2.48;63.79;99187.38;235530;1193;140442;-70
2023/01/27 01:55:36;;;;;;;31.30;19.40;;;;;;;2.46;63.73;99188.64;235418;1192;138497;-72
2023/01/27 02:00:42;;;;;;;30.80;19.60;;;;;;;2.46;63.43;99190.21;235597;1193;139166;-72
2023/01/27 02:05:46;;;;;;;29.60;19.20;;;;;;;2.47;63.29;99190.90;235320;1193;139569;-74
2023/01/27 02:10:53;;;;;;;29.90;19.60;;;;;;;2.49;63.30;99185.41;233951;1193;138621;-74
2023/01/27 02:15:56;;;;;;;31.10;19.90;;;;;;;2.48;63.21;99185.09;235208;1192;138911;-73
2023/01/27 02:21:01;;;;;;;30.00;19.40;;;;;;;2.47;63.30;99190.00;235498;1195;138419;-73
2023/01/27 02:26:18;;;;;;;34.60;21.20;;;;;;;2.46;63.18;99190.91;235530;1193;139003;-73
2023/01/27 02:31:23;;;;;;;33.90;21.10;;;;;;;2.46;63.24;99197.05;234353;1192;138946;-74
2023/01/27 02:36:30;;;;;;;30.30;19.00;;;;;;;2.48;63.13;99194.73;235435;1192;139168;-73
2023/01/27 02:41:39;;;;;;;29.40;19.40;;;;;;;2.47;63.23;99194.55;232936;1193;140587;-73
2023/01/27 02:46:43;;;;;;;30.50;19.60;;;;;;;2.47;63.12;99195.08;233045;1192;138537;-77
2023/01/27 02:51:46;;;;;;;29.70;19.70;;;;;;;2.47;62.99;99192.13;235139;1192;138429;-73
2023/01/27 02:56:50;;;;;;;29.70;18.90;;;;;;;2.46;62.84;99191.44;235510;1193;138302;-72
2023/01/27 03:01:54;;;;;;;32.50;20.00;;;;;;;2.47;63.27;99195.11;234601;1193;139553;-72
2023/01/27 03:06:57;;;;;;;27.90;17.90;;;;;;;2.46;63.00;99195.63;235684;1193;138964;-73
2023/01/27 03:12:20;;;;;;;29.30;17.80;;;;;;;2.43;63.00;99196.42;234306;1192;139225;-73
2023/01/27 03:22:46;;;;;;;26.40;17.60;;;;;;;2.42;62.55;99190.16;231935;1195;139178;-75
2023/01/27 03:27:51;;;;;;;;;;;;;;;2.42;62.56;99189.63;233543;1193;139418;-72
2023/01/27 03:33:04;;;;;;;26.00;16.80;;;;;;;2.40;62.65;99191.43;233837;1192;125467;-74
2023/01/27 03:49:09;;;;;;;24.60;16.50;;;;;;;2.38;62.32;99181.33;235012;1195;138579;-75
2023/01/27 03:54:13;;;;;;;42.90;28.50;;;;;;;2.38;62.23;99180.63;232814;1195;138643;-72
2023/01/27 03:59:16;;;;;;;147.50;96.10;;;;;;;2.44;62.72;99181.70;234702;1195;138569;-73
2023/01/27 04:09:42;;;;;;;29.30;18.60;;;;;;;2.52;61.95;99182.70;230752;1192;139276;-74
2023/01/27 04:14:45;;;;;;;26.50;17.00;;;;;;;2.53;61.39;99186.54;234680;1193;138509;-74
2023/01/27 04:19:48;;;;;;;27.40;16.70;;;;;;;2.50;60.95;99184.69;235388;1192;138581;-74
2023/01/27 04:24:52;;;;;;;129.30;81.40;;;;;;;2.47;61.35;99184.75;232970;1193;139111;-71
2023/01/27 04:29:56;;;;;;;31.00;21.10;;;;;;;2.52;62.15;99183.06;235486;1193;139129;-73
2023/01/27 04:34:59;;;;;;;28.70;18.10;;;;;;;2.52;61.26;99181.48;235034;1192;138857;-76
2023/01/27 04:40:03;;;;;;;32.50;18.90;;;;;;;2.47;61.44;99181.98;232634;1193;139048;-74
2023/01/27 04:45:07;;;;;;;27.10;18.00;;;;;;;2.44;61.73;99190.09;235531;1193;140411;-74
2023/01/27 04:50:13;;;;;;;30.10;19.10;;;;;;;2.41;61.65;99189.67;234243;1193;139116;-76
2023/01/27 04:55:16;;;;;;;29.50;18.70;;;;;;;2.40;61.54;99186.86;230880;1194;139070;-74
2023/01/27 05:00:20;;;;;;;27.30;18.40;;;;;;;2.39;61.28;99184.99;234515;1192;138756;-75
2023/01/27 05:05:24;;;;;;;403.70;250.00;;;;;;;2.36;61.59;99189.77;231048;1198;138573;-70
2023/01/27 05:10:27;;;;;;;35.40;23.60;;;;;;;2.41;61.91;99193.15;233080;1193;139615;-75
2023/01/27 05:15:32;;;;;;;33.60;20.80;;;;;;;2.40;61.12;99193.54;234510;1193;139799;-73
2023/01/27 05:20:35;;;;;;;32.30;20.10;;;;;;;2.38;61.11;99200.05;233138;1193;138763;-74
2023/01/27 05:25:43;;;;;;;28.70;19.30;;;;;;;2.35;61.25;99198.73;232897;1193;138538;-73
2023/01/27 05:30:46;;;;;;;31.60;20.10;;;;;;;2.34;61.54;99201.56;234274;1193;138457;-73
2023/01/27 05:35:50;;;;;;;32.70;20.50;;;;;;;2.33;61.60;99197.23;235442;1193;139803;-73
2023/01/27 05:41:00;;;;;;;34.50;19.50;;;;;;;2.33;61.46;99194.07;235577;1193;138613;-73
2023/01/27 05:46:13;;;;;;;31.70;19.70;;;;;;;2.32;61.77;99200.38;231957;1196;139046;-74
2023/01/27 05:51:18;;;;;;;36.70;20.70;;;;;;;2.32;61.68;99201.27;234124;1194;138239;-74
2023/01/27 05:56:22;;;;;;;34.10;21.40;;;;;;;2.34;61.66;99204.20;233918;1193;138568;-75
2023/01/27 06:01:29;;;;;;;33.30;21.50;;;;;;;2.34;61.75;99208.04;233506;1195;139750;-74
2023/01/27 06:06:33;;;;;;;33.50;20.20;;;;;;;2.33;61.86;99212.61;235557;1194;138523;-75
2023/01/27 06:11:36;;;;;;;30.00;19.50;;;;;;;2.32;61.55;99221.05;232999;1193;139046;-75
2023/01/27 06:16:40;;;;;;;32.70;19.90;;;;;;;2.31;61.49;99226.66;232741;1193;139562;-75
2023/01/27 06:21:43;;;;;;;32.80;18.30;;;;;;;2.31;60.84;99223.69;233415;1195;138926;-75
2023/01/27 06:26:47;;;;;;;28.50;18.20;;;;;;;2.30;60.58;99226.52;232204;1193;139016;-75
2023/01/27 06:31:50;;;;;;;28.50;18.20;;;;;;;2.30;60.59;99230.38;233297;1196;139819;-74
2023/01/27 06:36:53;;;;;;;28.80;19.20;;;;;;;2.30;61.02;99234.23;233378;1193;139986;-75
2023/01/27 06:41:57;;;;;;;32.60;20.20;;;;;;;2.29;61.21;99234.77;230773;1193;138848;-76
2023/01/27 06:47:00;;;;;;;26.90;18.20;;;;;;;2.28;61.20;99234.45;231390;1192;138221;-77
2023/01/27 06:52:04;;;;;;;27.60;17.80;;;;;;;2.26;61.57;99238.53;232899;1195;138460;-76
2023/01/27 06:57:10;;;;;;;27.20;18.60;;;;;;;2.25;61.44;99243.81;229455;1193;140002;-76
2023/01/27 07:02:13;;;;;;;31.20;19.20;;;;;;;2.25;61.80;99241.20;235180;1193;139367;-75
2023/01/27 07:07:17;;;;;;;31.40;19.10;;;;;;;2.28;61.44;99249.86;229894;1193;138604;-75
2023/01/27 07:12:20;;;;;;;29.40;18.50;;;;;;;2.29;61.60;99252.11;233727;1196;139413;-75
2023/01/27 07:17:24;;;;;;;33.40;19.20;;;;;;;2.31;61.01;99247.86;233086;1195;139126;-75
2023/01/27 07:22:30;;;;;;;31.30;19.20;;;;;;;2.30;61.05;99248.75;230611;1192;138649;-75
2023/01/27 07:27:35;;;;;;;30.50;18.30;;;;;;;2.29;61.01;99251.23;232786;1191;139330;-74
2023/01/27 07:32:38;;;;;;;29.60;18.40;;;;;;;2.29;60.72;99253.69;232613;1193;138985;-73
2023/01/27 07:37:42;;;;;;;33.50;20.00;;;;;;;2.30;60.70;99255.91;231101;1196;138630;-74
2023/01/27 07:42:46;;;;;;;28.50;18.70;;;;;;;2.33;60.49;99258.13;229599;1192;138175;-73
2023/01/27 07:47:50;;;;;;;29.80;18.30;;;;;;;2.34;60.36;99260.55;232961;1193;138669;-74
2023/01/27 07:53:00;;;;;;;29.30;19.00;;;;;;;2.37;60.20;99256.81;230230;1196;139064;-75
2023/01/27 07:58:08;;;;;;;30.70;18.70;;;;;;;2.36;59.81;99259.63;232937;1192;138627;-72
2023/01/27 08:03:24;;;;;;;33.90;20.30;;;;;;;2.34;59.89;99260.56;231669;1192;138357;-73
2023/01/27 08:08:28;;;;;;;22.80;14.30;;;;;;;2.35;59.73;99262.99;234811;1192;138724;-74
2023/01/27 08:13:33;;;;;;;33.90;20.90;;;;;;;2.38;59.99;99270.62;232438;1193;140831;-73
2023/01/27 08:18:40;;;;;;;35.00;21.00;;;;;;;2.39;59.99;99275.51;231329;1196;138771;-74
2023/01/27 08:23:46;;;;;;;37.50;21.20;;;;;;;2.40;60.01;99267.58;233600;1194;139634;-74
2023/01/27 08:28:51;;;;;;;32.30;20.40;;;;;;;2.43;60.37;99275.56;231005;1193;138893;-74
2023/01/27 08:33:55;;;;;;;33.60;20.10;;;;;;;2.44;60.24;99276.41;234047;1194;139378;-75
2023/01/27 08:39:02;;;;;;;35.20;19.90;;;;;;;2.46;60.27;99278.14;234924;1196;138903;-73
2023/01/27 08:44:08;;;;;;;34.50;20.30;;;;;;;2.48;59.98;99283.49;230278;1192;141704;-73
2023/01/27 08:49:14;;;;;;;39.60;21.20;;;;;;;2.51;59.68;99282.36;231540;1193;138965;-74
2023/01/27 08:54:20;;;;;;;39.30;20.80;;;;;;;2.56;59.77;99286.25;235323;1196;138948;-75
2023/01/27 08:59:25;;;;;;;;;;;;;;;2.64;59.77;99290.27;231141;1192;138506;-73
2023/01/27 09:04:30;;;;;;;30.90;18.70;;;;;;;2.68;59.61;99293.68;230702;1193;124897;-75
2023/01/27 09:09:39;;;;;;;38.30;19.00;;;;;;;2.70;59.51;99288.70;232033;1196;138536;-73
2023/01/27 09:14:44;;;;;;;32.80;18.80;;;;;;;2.71;59.01;99292.17;232570;1193;138547;-74
2023/01/27 09:19:49;;;;;;;35.00;19.30;;;;;;;2.74;59.04;99293.52;230761;1198;139045;-74
2023/01/27 09:24:53;;;;;;;32.20;19.90;;;;;;;2.76;59.24;99296.61;232322;1192;139066;-72
2023/01/27 09:29:58;;;;;;;30.10;18.70;;;;;;;2.76;58.82;99296.77;231668;1193;138157;-74
2023/01/27 09:35:03;;;;;;;33.80;19.40;;;;;;;2.76;58.95;99295.56;232104;1196;139127;-73
2023/01/27 09:40:33;;;;;;;34.70;19.00;;;;;;;2.81;59.06;99296.65;232051;1196;138740;-70
2023/01/27 09:46:11;;;;;;;120.80;69.10;;;;;;;2.84;59.15;99296.75;230009;1193;138696;-74
2023/01/27 09:51:27;;;;;;;45.90;27.20;;;;;;;2.95;59.69;99292.77;235427;1193;139555;-73
2023/01/27 09:56:43;;;;;;;37.00;20.50;;;;;;;3.01;59.45;99286.64;235200;1193;141544;-71
2023/01/27 10:01:53;;;;;;;32.10;20.20;;;;;;;3.04;59.29;99290.77;235089;1193;139053;-70
2023/01/27 10:07:35;;;;;;;32.40;20.70;;;;;;;3.05;59.49;99285.83;234835;1193;138990;-77
2023/01/27 10:13:20;;;;;;;35.40;21.90;;;;;;;3.07;59.65;99277.19;232833;1192;139407;-72
2023/01/27 10:18:44;;;;;;;35.30;20.80;;;;;;;3.16;59.65;99269.60;234887;1192;139539;-72
2023/01/27 10:24:08;;;;;;;37.20;21.30;;;;;;;3.19;59.47;99265.98;233968;1192;138532;-74
2023/01/27 10:29:32;;;;;;;37.60;21.80;;;;;;;3.22;59.50;99262.94;235454;1193;139059;-73
2023/01/27 10:34:40;;;;;;;508.80;325.20;;;;;;;3.27;60.18;99262.08;234958;1192;138779;-74
2023/01/27 10:39:59;;;;;;;47.80;28.20;;;;;;;3.41;60.29;99261.83;232293;1193;140851;-71
2023/01/27 10:45:23;;;;;;;39.10;22.30;;;;;;;3.44;59.33;99265.78;235538;1192;138897;-72
2023/01/27 10:50:35;;;;;;;37.80;22.30;;;;;;;3.44;59.21;99260.52;235443;1193;139786;-72
2023/01/27 10:56:01;;;;;;;34.30;21.40;;;;;;;3.44;59.17;99264.39;235524;1193;138553;-72
2023/01/27 11:01:08;;;;;;;35.10;22.20;;;;;;;3.43;59.54;99261.80;235090;1193;139534;-72
2023/01/27 11:06:34;;;;;;;37.50;22.50;;;;;;;3.43;59.51;99265.83;235405;1193;139064;-73
2023/01/27 11:11:45;;;;;;;37.40;22.40;;;;;;;3.43;60.50;99270.73;230778;1197;138832;-73
2023/01/27 11:16:53;;;;;;;36.30;21.70;;;;;;;4.39;62.22;99264.39;234266;1193;139463;-73
2023/01/27 11:21:58;;;;;;;34.80;21.30;;;;;;;4.28;58.53;99266.16;235384;1193;139169;-67
2023/01/27 11:27:26;;;;;;;34.90;21.30;;;;;;;4.14;58.21;99262.95;232290;1192;139861;-65
2023/01/27 11:32:46;;;;;;;37.60;21.40;;;;;;;4.04;58.31;99268.17;235488;1193;139653;-67
2023/01/27 11:37:52;;;;;;;38.60;21.90;;;;;;;3.98;58.48;99267.14;235562;1192;138436;-67
2023/01/27 11:43:16;;;;;;;32.70;20.60;;;;;;;3.92;58.15;99267.14;232719;1192;140239;-67
2023/01/27 11:48:20;;;;;;;31.10;19.90;;;;;;;3.85;58.25;99267.72;235356;1195;141839;-70
2023/01/27 11:53:35;;;;;;;36.50;20.70;;;;;;;3.74;58.00;99268.56;234685;1195;139406;-70
2023/01/27 11:59:02;;;;;;;35.60;21.00;;;;;;;3.68;58.65;99270.35;232301;1196;139408;-71
2023/01/27 12:04:20;;;;;;;33.60;20.30;;;;;;;3.64;58.80;99273.45;235257;1192;138883;-72
2023/01/27 12:09:36;;;;;;;32.60;19.80;;;;;;;3.60;58.88;99281.83;235313;1192;138579;-71
2023/01/27 12:14:47;;;;;;;35.70;21.70;;;;;;;3.55;58.98;99281.61;234859;1192;139354;-71
2023/01/27 12:19:56;;;;;;;35.30;21.30;;;;;;;3.54;59.22;99279.72;235446;1193;139134;-75
2023/01/27 12:25:03;;;;;;;35.30;20.90;;;;;;;3.50;59.24;99280.54;235447;1193;138766;-74
2023/01/27 12:30:20;;;;;;;32.50;21.40;;;;;;;3.46;59.81;99269.06;233643;1193;139603;-73
2023/01/27 12:35:33;;;;;;;39.30;22.60;;;;;;;3.45;59.99;99266.11;235336;1192;139534;-72
2023/01/27 12:40:43;;;;;;;33.40;21.10;;;;;;;3.44;60.19;99270.54;235045;1192;139591;-72
2023/01/27 12:46:11;;;;;;;36.90;21.80;;;;;;;3.41;60.20;99265.54;233691;1192;138838;-74
2023/01/27 12:51:20;;;;;;;37.30;21.30;;;;;;;3.39;60.74;99266.64;235524;1193;139479;-72
2023/01/27 12:56:24;;;;;;;34.90;21.50;;;;;;;3.38;60.58;99259.84;235529;1192;138979;-71
2023/01/27 13:01:40;;;;;;;34.30;21.50;;;;;;;3.36;60.99;99257.27;232328;1196;138962;-72
2023/01/27 13:06:48;;;;;;;;;;;;;;;3.39;60.82;99258.40;231105;1196;138449;-72
2023/01/27 13:11:55;;;;;;;33.30;20.50;;;;;;;3.40;61.12;99259.07;233373;1192;125566;-71
2023/01/27 13:16:59;;;;;;;33.70;21.00;;;;;;;3.40;60.61;99261.02;232533;1193;138318;-71
2023/01/27 13:22:04;;;;;;;32.10;20.60;;;;;;;3.39;60.66;99260.34;235294;1192;138408;-72
2023/01/27 13:27:16;;;;;;;37.00;21.50;;;;;;;3.37;61.09;99259.33;235426;1192;138670;-71
2023/01/27 13:32:31;;;;;;;35.30;20.90;;;;;;;3.35;60.90;99261.49;233219;1193;139115;-73
2023/01/27 13:37:51;;;;;;;34.40;20.70;;;;;;;3.34;61.06;99265.56;230640;1193;139190;-72
2023/01/27 13:43:24;;;;;;;32.20;20.60;;;;;;;3.37;60.80;99270.21;234482;1193;138741;-71
2023/01/27 13:48:40;;;;;;;30.00;20.00;;;;;;;3.37;60.92;99270.92;232283;1193;139500;-72
2023/01/27 13:53:46;;;;;;;35.60;21.10;;;;;;;3.33;61.01;99274.36;233625;1191;138785;-73
2023/01/27 13:59:09;;;;;;;34.20;20.90;;;;;;;3.30;61.07;99279.17;235457;1193;139687;-73
2023/01/27 14:04:38;;;;;;;152.40;87.10;;;;;;;3.28;61.41;99284.31;230704;1195;140146;-68
2023/01/27 14:10:18;;;;;;;36.70;22.10;;;;;;;3.55;62.20;99281.27;233538;1193;138891;-72
2023/01/27 14:15:28;;;;;;;32.10;19.70;;;;;;;3.51;60.68;99283.63;232901;1193;139356;-73
2023/01/27 14:20:36;;;;;;;33.20;19.70;;;;;;;3.43;60.98;99292.48;234874;1193;138894;-72
2023/01/27 14:25:53;;;;;;;30.10;19.20;;;;;;;3.45;61.32;99300.13;235644;1193;138538;-72
2023/01/27 14:31:23;;;;;;;32.10;19.20;;;;;;;3.42;60.83;99299.52;234225;1192;138850;-72
2023/01/27 14:36:51;;;;;;;31.10;18.90;;;;;;;3.39;60.87;99299.63;235497;1193;138523;-69
2023/01/27 14:42:12;;;;;;;31.50;19.20;;;;;;;3.35;61.12;99298.33;233046;1193;139110;-69
2023/01/27 14:47:30;;;;;;;31.40;19.50;;;;;;;3.31;61.12;99297.55;232202;1193;139087;-71
2023/01/27 14:52:40;;;;;;;32.70;20.20;;;;;;;3.29;60.93;99299.03;234711;1192;138797;-70
2023/01/27 14:58:03;;;;;;;35.50;19.20;;;;;;;3.29;60.93;99302.17;233236;1193;139051;-70
2023/01/27 15:03:31;;;;;;;30.50;16.50;;;;;;;3.28;60.59;99306.95;231373;1192;139077;-70
2023/01/27 15:08:54;;;;;;;25.70;16.90;;;;;;;3.23;59.75;99319.90;233964;1193;138431;-71
2023/01/27 15:14:22;;;;;;;26.40;17.10;;;;;;;3.20;59.68;99328.03;233548;1193;139062;-70
2023/01/27 15:19:34;;;;;;;27.40;16.40;;;;;;;3.22;59.61;99337.98;233536;1193;138891;-69
2023/01/27 15:30:36;;;;;;;31.30;19.00;;;;;;;3.28;59.40;99342.70;233347;1193;139075;-70
2023/01/27 15:35:41;;;;;;;27.40;16.40;;;;;;;3.25;59.09;99340.00;230936;1195;139717;-72
2023/01/27 15:41:14;;;;;;;26.50;15.90;;;;;;;3.21;58.96;99341.16;234764;1193;139192;-76
2023/01/27 15:46:24;;;;;;;22.80;14.40;;;;;;;3.19;59.08;99339.62;235423;1193;138919;-72
2023/01/27 15:51:33;;;;;;;19.60;12.20;;;;;;;3.15;58.52;99339.20;235415;1192;139968;-73
2023/01/27 15:56:46;;;;;;;15.10;9.70;;;;;;;3.14;57.52;99340.11;235406;1196;141776;-71
2023/01/27 16:02:15;;;;;;;17.80;10.70;;;;;;;3.12;56.35;99339.48;234237;1193;139401;-76
2023/01/27 16:07:31;;;;;;;96.90;55.80;;;;;;;3.13;56.86;99343.65;230960;1195;140300;-69
2023/01/27 16:12:42;;;;;;;17.00;9.90;;;;;;;4.46;61.55;99335.45;231844;1192;139010;-71
2023/01/27 16:17:59;;;;;;;15.70;9.30;;;;;;;4.40;54.45;99328.46;235447;1192;138992;-70
2023/01/27 16:23:26;;;;;;;15.10;9.40;;;;;;;4.06;53.81;99335.34;234433;1192;139566;-71
2023/01/27 16:28:33;;;;;;;12.80;8.70;;;;;;;3.85;53.75;99339.14;235166;1192;139061;-71
2023/01/27 16:33:40;;;;;;;284.10;147.30;;;;;;;3.67;53.96;99336.86;235433;1193;138365;-70
2023/01/27 16:38:45;;;;;;;114.20;70.60;;;;;;;3.80;55.82;99342.80;233799;1193;138859;-70
2023/01/27 16:44:00;;;;;;;20.00;12.00;;;;;;;3.90;54.20;99341.81;235653;1192;138811;-72
2023/01/27 16:49:19;;;;;;;14.50;9.10;;;;;;;3.68;53.29;99344.71;235513;1193;138504;-72
2023/01/27 16:54:28;;;;;;;12.10;7.80;;;;;;;3.50;53.00;99352.61;234024;1192;139675;-71
2023/01/27 16:59:37;;;;;;;13.20;8.30;;;;;;;3.36;52.87;99358.44;232853;1193;138361;-70
2023/01/27 17:04:51;;;;;;;15.90;9.30;;;;;;;3.27;53.31;99364.48;233805;1193;138477;-70
2023/01/27 17:09:58;;;;;;;14.70;9.60;;;;;;;3.19;53.43;99368.55;235031;1193;138890;-71
2023/01/27 17:15:28;;;;;;;16.30;9.90;;;;;;;3.09;53.86;99367.40;235298;1195;138537;-74
2023/01/27 17:20:36;;;;;;;173.00;111.60;;;;;;;3.05;56.04;99378.23;233081;1193;139629;-69
2023/01/27 17:25:40;;;;;;;28.60;18.50;;;;;;;3.43;55.55;99380.16;235549;1192;139735;-72
2023/01/27 17:30:45;;;;;;;16.40;11.70;;;;;;;3.41;53.97;99380.95;235418;1192;138881;-73
2023/01/27 17:35:55;;;;;;;17.30;11.10;;;;;;;3.26;53.61;99381.33;232917;1192;139131;-74
2023/01/27 17:41:01;;;;;;;16.60;11.00;;;;;;;3.15;53.61;99379.17;233325;1194;139224;-80
2023/01/27 17:46:08;;;;;;;18.50;11.80;;;;;;;3.02;54.08;99380.03;233765;1192;139013;-73
2023/01/27 17:51:18;;;;;;;18.80;12.10;;;;;;;2.95;54.42;99385.66;232648;1192;139828;-77
2023/01/27 17:56:28;;;;;;;22.50;12.50;;;;;;;2.92;54.51;99389.23;235459;1193;139161;-76
2023/01/27 18:01:33;;;;;;;18.90;11.80;;;;;;;2.92;54.64;99393.97;232309;1195;138862;-74
2023/01/27 18:06:41;;;;;;;21.90;12.30;;;;;;;2.89;54.79;99399.99;231061;1198;138548;-73
2023/01/27 18:11:55;;;;;;;18.80;12.80;;;;;;;2.87;55.06;99396.73;235369;1192;139187;-74
2023/01/27 18:17:21;;;;;;;98.00;64.20;;;;;;;2.87;55.18;99400.23;235412;1192;139620;-72
2023/01/27 18:22:26;;;;;;;24.30;15.20;;;;;;;2.95;55.69;99400.74;233386;1193;138470;-73
2023/01/27 18:27:35;;;;;;;22.90;15.00;;;;;;;2.92;54.94;99414.65;234728;1192;138493;-73
2023/01/27 18:32:42;;;;;;;23.40;14.40;;;;;;;2.86;55.19;99423.39;234954;1194;139523;-73
2023/01/27 18:38:02;;;;;;;347.50;209.30;;;;;;;2.87;55.60;99427.21;233676;1192;140028;-70
2023/01/27 18:43:08;;;;;;;34.00;20.90;;;;;;;2.90;56.16;99438.34;233403;1192;139136;-73
2023/01/27 18:48:16;;;;;;;32.80;19.20;;;;;;;2.86;55.45;99441.25;235481;1195;138601;-71
2023/01/27 18:53:20;;;;;;;27.60;16.00;;;;;;;3.00;56.66;99450.56;233111;1193;138856;-74
2023/01/27 18:58:24;;;;;;;25.40;14.70;;;;;;;2.94;54.52;99454.71;234694;1192;139021;-74
2023/01/27 19:03:33;;;;;;;22.20;13.80;;;;;;;2.84;54.74;99458.47;234808;1195;138965;-75
2023/01/27 19:08:38;;;;;;;21.60;13.20;;;;;;;2.79;54.68;99461.23;231997;1196;140105;-75
2023/01/27 19:13:44;;;;;;;22.00;13.10;;;;;;;2.75;54.74;99464.47;234356;1192;138612;-73
2023/01/27 19:18:48;;;;;;;21.70;14.40;;;;;;;2.70;54.60;99462.67;235435;1193;138952;-71
2023/01/27 19:26:19;;;;;;;;;;;;;;;;;;;;;
2023/01/27 19:32:35;;;;;;;28.40;15.80;;;;;;;2.79;54.13;99472.96;235329;1193;138404;-70
2023/01/27 19:38:53;;;;;;;297.50;183.30;;;;;;;2.73;56.54;99473.63;235348;1193;138042;-71
2023/01/27 19:44:47;;;;;;;;;;;;;;;;;;;;;
2023/01/27 19:51:04;;;;;;;21.80;13.70;;;;;;;3.75;53.10;99456.83;235282;1193;139168;-66
2023/01/27 19:57:01;;;;;;;23.20;13.80;;;;;;;3.49;53.24;99459.82;235109;1193;138226;-66
2023/01/27 20:03:16;;;;;;;22.20;13.10;;;;;;;3.28;53.55;99470.36;235196;1196;138402;-67
2023/01/27 20:08:46;;;;;;;25.80;14.80;;;;;;;3.12;54.17;99474.81;235154;1193;138398;-66
2023/01/27 20:14:14;;;;;;;25.10;14.80;;;;;;;3.02;54.31;99482.40;235339;1193;138499;-64
2023/01/27 20:19:21;;;;;;;23.80;14.50;;;;;;;2.95;54.53;99486.42;235137;1196;138329;-65
2023/01/27 20:32:07;;;;;;;24.30;15.20;;;;;;;2.82;54.95;99488.30;235151;1192;138590;-64
2023/01/27 20:38:27;;;;;;;24.00;15.20;;;;;;;2.77;55.53;99486.66;235141;1193;138811;-66
2023/01/27 20:44:59;;;;;;;22.50;14.60;;;;;;;2.72;55.63;99485.74;235203;1193;138391;-67
2023/01/27 20:51:51;;;;;;;27.10;15.00;;;;;;;2.62;55.94;99487.55;235071;1193;138815;-66
2023/01/27 20:57:31;;;;;;;;;;;;;;;2.59;56.31;99488.48;235323;1192;139217;-64
2023/01/27 21:04:00;;;;;;;26.30;15.10;;;;;;;2.58;56.43;99494.64;234876;1195;124625;-66
2023/01/27 21:10:05;;;;;;;;;;;;;;;;;;;;;
2023/01/27 21:16:18;;;;;;;24.80;14.40;;;;;;;2.54;56.88;99485.77;234890;1196;138526;-66
2023/01/27 21:22:38;;;;;;;23.80;15.00;;;;;;;2.52;56.75;99485.84;234833;1194;138750;-69
2023/01/27 21:28:14;;;;;;;;;;;;;;;;;;;;;
2023/01/27 21:34:31;;;;;;;24.00;15.30;;;;;;;2.48;57.36;99485.40;235000;1195;138378;-69
2023/01/27 21:40:56;;;;;;;28.30;16.40;;;;;;;2.50;57.07;99488.51;234925;1195;138445;-68
2023/01/27 21:46:40;;;;;;;27.80;16.60;;;;;;;2.48;56.91;99483.30;234871;1195;138632;-67
2023/01/27 21:52:56;;;;;;;;;;;;;;;;;;;;;
2023/01/27 22:02:21;;;;;;;32.10;17.70;;;;;;;2.46;57.42;99488.95;231674;1211;635310;-68
2023/01/27 22:08:32;;;;;;;30.30;18.20;;;;;;;2.44;57.53;99487.94;235136;1194;138013;-69
2023/01/27 22:14:08;;;;;;;32.30;18.50;;;;;;;2.44;58.00;99482.33;234860;1195;138604;-72
2023/01/27 22:20:34;;;;;;;31.30;16.90;;;;;;;2.44;57.92;99485.84;235081;1197;138102;-67
2023/01/27 22:26:50;;;;;;;;;;;;;;;;;;;;;
2023/01/27 22:33:15;;;;;;;29.20;16.80;;;;;;;2.39;57.36;99478.09;235046;1196;138414;-75
2023/01/27 22:39:30;;;;;;;35.10;18.50;;;;;;;2.40;57.71;99481.36;235087;1193;138814;-70
2023/01/27 22:45:55;;;;;;;29.30;16.50;;;;;;;2.40;57.86;99482.41;235093;1193;138932;-73
2023/01/27 22:52:09;;;;;;;25.10;15.60;;;;;;;2.36;57.35;99477.60;235062;1197;138568;-72
2023/01/27 22:58:44;;;;;;;28.00;16.10;;;;;;;2.34;57.83;99471.86;235029;1197;138555;-72
2023/01/27 23:05:09;;;;;;;26.00;16.00;;;;;;;2.35;57.54;99470.98;235168;1196;138866;-69
2023/01/27 23:11:38;;;;;;;26.40;15.00;;;;;;;2.34;57.42;99474.67;235325;1193;138579;-71
2023/01/27 23:23:10;;;;;;;22.80;14.20;;;;;;;2.42;57.76;99471.53;235319;1193;138730;-67
2023/01/27 23:28:47;;;;;;;22.80;14.80;;;;;;;2.39;57.75;99472.47;235359;1192;138959;-68
2023/01/27 23:35:15;;;;;;;24.60;15.50;;;;;;;2.38;57.65;99466.36;235519;1193;138922;-68
2023/01/27 23:42:42;;;;;;;26.60;15.90;;;;;;;2.38;57.55;99466.34;234905;1193;139064;-66
2023/01/27 23:48:03;;;;;;;26.10;15.70;;;;;;;2.37;57.61;99455.88;235224;1193;140433;-66
